sensor_id;sensor_type;location;lat;lon;timestamp;pressure;altitude;pressure_sealevel;temperature;humidity
77685;BME280;66844;46.092;18.268;2023-03-19T00:00:03;99519.88;;;5.83;60.32
77685;BME280;66844;46.092;18.268;2023-03-19T00:00:35;99518.00;;;5.87;60.31
77685;BME280;66844;46.092;18.268;2023-03-19T00:01:07;99520.66;;;5.87;60.21
77685;BME280;66844;46.092;18.268;2023-03-19T00:01:39;99519.78;;;5.87;60.10
77685;BME280;66844;46.092;18.268;2023-03-19T00:02:11;99518.91;;;5.86;59.88
77685;BME280;66844;46.092;18.268;2023-03-19T00:02:48;99522.34;;;5.88;59.89
77685;BME280;66844;46.092;18.268;2023-03-19T00:03:22;99519.78;;;5.87;59.66
77685;BME280;66844;46.092;18.268;2023-03-19T00:03:54;99517.06;;;5.88;59.60
77685;BME280;66844;46.092;18.268;2023-03-19T00:04:26;99522.34;;;5.88;59.71
77685;BME280;66844;46.092;18.268;2023-03-19T00:04:59;99514.44;;;5.88;59.88
77685;BME280;66844;46.092;18.268;2023-03-19T00:05:31;99520.56;;;5.89;59.74
77685;BME280;66844;46.092;18.268;2023-03-19T00:06:03;99517.16;;;5.87;59.57
77685;BME280;66844;46.092;18.268;2023-03-19T00:06:36;99520.66;;;5.87;59.86
77685;BME280;66844;46.092;18.268;2023-03-19T00:07:07;99513.59;;;5.88;59.51
77685;BME280;66844;46.092;18.268;2023-03-19T00:07:39;99517.06;;;5.88;60.08
77685;BME280;66844;46.092;18.268;2023-03-19T00:08:11;99511.88;;;5.87;59.90
77685;BME280;66844;46.092;18.268;2023-03-19T00:08:43;99519.78;;;5.87;60.23
77685;BME280;66844;46.092;18.268;2023-03-19T00:09:16;99520.66;;;5.85;59.96
77685;BME280;66844;46.092;18.268;2023-03-19T00:09:48;99517.16;;;5.85;59.68
77685;BME280;66844;46.092;18.268;2023-03-19T00:10:20;99518.00;;;5.87;59.70
77685;BME280;66844;46.092;18.268;2023-03-19T00:10:52;99520.66;;;5.85;59.48
77685;BME280;66844;46.092;18.268;2023-03-19T00:11:24;99518.88;;;5.88;60.05
77685;BME280;66844;46.092;18.268;2023-03-19T00:11:56;99525.84;;;5.89;59.77
77685;BME280;66844;46.092;18.268;2023-03-19T00:12:28;99523.22;;;5.89;59.31
77685;BME280;66844;46.092;18.268;2023-03-19T00:13:00;99519.66;;;5.90;59.46
77685;BME280;66844;46.092;18.268;2023-03-19T00:13:32;99525.75;;;5.92;59.41
77685;BME280;66844;46.092;18.268;2023-03-19T00:14:04;99521.31;;;5.92;59.67
77685;BME280;66844;46.092;18.268;2023-03-19T00:14:37;99519.72;;;5.88;59.81
77685;BME280;66844;46.092;18.268;2023-03-19T00:15:09;99522.34;;;5.88;59.88
77685;BME280;66844;46.092;18.268;2023-03-19T00:15:45;99528.50;;;5.89;59.27
77685;BME280;66844;46.092;18.268;2023-03-19T00:16:17;99518.91;;;5.86;59.70
77685;BME280;66844;46.092;18.268;2023-03-19T00:16:49;99522.34;;;5.88;59.09
77685;BME280;66844;46.092;18.268;2023-03-19T00:17:21;99519.72;;;5.88;59.72
77685;BME280;66844;46.092;18.268;2023-03-19T00:17:53;99524.16;;;5.88;59.87
77685;BME280;66844;46.092;18.268;2023-03-19T00:18:27;99518.00;;;5.87;59.67
77685;BME280;66844;46.092;18.268;2023-03-19T00:18:59;99518.81;;;5.89;58.99
77685;BME280;66844;46.092;18.268;2023-03-19T00:19:31;99512.66;;;5.89;59.16
77685;BME280;66844;46.092;18.268;2023-03-19T00:20:03;99513.53;;;5.89;59.57
77685;BME280;66844;46.092;18.268;2023-03-19T00:20:35;99510.88;;;5.89;59.39
77685;BME280;66844;46.092;18.268;2023-03-19T00:21:08;99515.19;;;5.92;59.28
77685;BME280;66844;46.092;18.268;2023-03-19T00:21:40;99521.31;;;5.92;59.51
77685;BME280;66844;46.092;18.268;2023-03-19T00:22:12;99517.84;;;5.92;59.07
77685;BME280;66844;46.092;18.268;2023-03-19T00:22:43;99520.53;;;5.90;59.05
77685;BME280;66844;46.092;18.268;2023-03-19T00:23:16;99507.38;;;5.89;59.71
77685;BME280;66844;46.092;18.268;2023-03-19T00:23:48;99511.75;;;5.90;59.47
77685;BME280;66844;46.092;18.268;2023-03-19T00:24:20;99510.09;;;5.87;59.26
77685;BME280;66844;46.092;18.268;2023-03-19T00:24:52;99514.44;;;5.88;59.19
77685;BME280;66844;46.092;18.268;2023-03-19T00:25:24;99513.66;;;5.86;59.53
77685;BME280;66844;46.092;18.268;2023-03-19T00:25:56;99517.06;;;5.88;59.79
77685;BME280;66844;46.092;18.268;2023-03-19T00:26:29;99513.59;;;5.88;59.63
77685;BME280;66844;46.092;18.268;2023-03-19T00:27:01;99511.00;;;5.86;59.77
77685;BME280;66844;46.092;18.268;2023-03-19T00:27:35;99510.19;;;5.84;59.66
77685;BME280;66844;46.092;18.268;2023-03-19T00:28:07;99515.50;;;5.82;59.63
77685;BME280;66844;46.092;18.268;2023-03-19T00:28:40;99511.97;;;5.83;59.88
77685;BME280;66844;46.092;18.268;2023-03-19T00:29:12;99514.59;;;5.83;59.21
77685;BME280;66844;46.092;18.268;2023-03-19T00:29:44;99511.00;;;5.86;59.82
77685;BME280;66844;46.092;18.268;2023-03-19T00:30:15;99511.00;;;5.84;59.03
77685;BME280;66844;46.092;18.268;2023-03-19T00:30:47;99509.38;;;5.82;59.86
77685;BME280;66844;46.092;18.268;2023-03-19T00:31:19;99515.56;;;5.81;59.29
77685;BME280;66844;46.092;18.268;2023-03-19T00:31:51;99517.28;;;5.82;59.30
77685;BME280;66844;46.092;18.268;2023-03-19T00:32:23;99507.63;;;5.81;59.98
77685;BME280;66844;46.092;18.268;2023-03-19T00:32:56;99510.34;;;5.79;59.59
77685;BME280;66844;46.092;18.268;2023-03-19T00:33:28;99510.41;;;5.78;59.34
77685;BME280;66844;46.092;18.268;2023-03-19T00:34:00;99512.16;;;5.77;59.75
77685;BME280;66844;46.092;18.268;2023-03-19T00:34:32;99505.19;;;5.76;59.42
77685;BME280;66844;46.092;18.268;2023-03-19T00:35:05;99512.16;;;5.77;59.88
77685;BME280;66844;46.092;18.268;2023-03-19T00:35:38;99508.66;;;5.77;59.20
77685;BME280;66844;46.092;18.268;2023-03-19T00:36:11;99507.00;;;5.74;59.55
77685;BME280;66844;46.092;18.268;2023-03-19T00:36:44;99506.16;;;5.74;59.73
77685;BME280;66844;46.092;18.268;2023-03-19T00:37:16;99507.09;;;5.73;59.81
77685;BME280;66844;46.092;18.268;2023-03-19T00:37:48;99507.09;;;5.73;59.83
77685;BME280;66844;46.092;18.268;2023-03-19T00:38:20;99505.41;;;5.70;59.46
77685;BME280;66844;46.092;18.268;2023-03-19T00:38:53;99505.41;;;5.70;59.76
77685;BME280;66844;46.092;18.268;2023-03-19T00:39:25;99506.34;;;5.69;59.67
77685;BME280;66844;46.092;18.268;2023-03-19T00:39:57;99509.78;;;5.71;59.59
77685;BME280;66844;46.092;18.268;2023-03-19T00:40:28;99503.78;;;5.66;59.81
77685;BME280;66844;46.092;18.268;2023-03-19T00:41:02;99498.63;;;5.63;60.18
77685;BME280;66844;46.092;18.268;2023-03-19T00:41:34;99507.28;;;5.67;59.76
77685;BME280;66844;46.092;18.268;2023-03-19T00:42:06;99502.09;;;5.65;59.47
77685;BME280;66844;46.092;18.268;2023-03-19T00:42:39;99501.16;;;5.66;60.09
77685;BME280;66844;46.092;18.268;2023-03-19T00:43:12;99506.50;;;5.65;59.43
77685;BME280;66844;46.092;18.268;2023-03-19T00:43:44;99495.97;;;5.65;59.66
77685;BME280;66844;46.092;18.268;2023-03-19T00:44:16;99496.81;;;5.65;59.87
77685;BME280;66844;46.092;18.268;2023-03-19T00:44:49;99495.00;;;5.66;59.74
77685;BME280;66844;46.092;18.268;2023-03-19T00:45:21;99497.84;;;5.61;59.70
77685;BME280;66844;46.092;18.268;2023-03-19T00:45:53;99493.44;;;5.62;60.02
77685;BME280;66844;46.092;18.268;2023-03-19T00:46:25;99496.81;;;5.65;59.95
77685;BME280;66844;46.092;18.268;2023-03-19T00:46:58;99495.13;;;5.63;59.23
77685;BME280;66844;46.092;18.268;2023-03-19T00:47:29;99496.06;;;5.62;59.81
77685;BME280;66844;46.092;18.268;2023-03-19T00:48:01;99496.88;;;5.64;59.81
77685;BME280;66844;46.092;18.268;2023-03-19T00:48:33;99500.38;;;5.64;59.33
77685;BME280;66844;46.092;18.268;2023-03-19T00:49:05;99504.81;;;5.62;59.73
77685;BME280;66844;46.092;18.268;2023-03-19T00:49:37;99490.81;;;5.62;59.77
77685;BME280;66844;46.092;18.268;2023-03-19T00:50:09;99487.34;;;5.60;59.90
77685;BME280;66844;46.092;18.268;2023-03-19T00:50:42;99487.47;;;5.57;59.46
77685;BME280;66844;46.092;18.268;2023-03-19T00:51:13;99490.06;;;5.58;60.28
77685;BME280;66844;46.092;18.268;2023-03-19T00:51:46;99487.47;;;5.57;59.82
77685;BME280;66844;46.092;18.268;2023-03-19T00:52:18;99489.28;;;5.55;60.09
77685;BME280;66844;46.092;18.268;2023-03-19T00:52:50;99497.09;;;5.58;59.51
77685;BME280;66844;46.092;18.268;2023-03-19T00:53:22;99494.47;;;5.58;59.97
77685;BME280;66844;46.092;18.268;2023-03-19T00:53:54;99488.50;;;5.53;59.80
77685;BME280;66844;46.092;18.268;2023-03-19T00:54:26;99489.28;;;5.55;59.67
77685;BME280;66844;46.092;18.268;2023-03-19T00:54:57;99489.34;;;5.53;59.56
77685;BME280;66844;46.092;18.268;2023-03-19T00:55:29;99485.84;;;5.53;60.03
77685;BME280;66844;46.092;18.268;2023-03-19T00:56:02;99490.34;;;5.51;60.19
77685;BME280;66844;46.092;18.268;2023-03-19T00:56:33;99485.16;;;5.48;60.27
77685;BME280;66844;46.092;18.268;2023-03-19T00:57:05;99486.09;;;5.47;60.02
77685;BME280;66844;46.092;18.268;2023-03-19T00:57:37;99485.28;;;5.45;60.77
77685;BME280;66844;46.092;18.268;2023-03-19T00:58:09;99488.72;;;5.47;60.49
77685;BME280;66844;46.092;18.268;2023-03-19T00:58:41;99484.38;;;5.46;59.89
77685;BME280;66844;46.092;18.268;2023-03-19T00:59:13;99485.22;;;5.46;60.24
77685;BME280;66844;46.092;18.268;2023-03-19T00:59:45;99487.78;;;5.48;60.11
77685;BME280;66844;46.092;18.268;2023-03-19T01:00:18;99484.28;;;5.47;59.82
77685;BME280;66844;46.092;18.268;2023-03-19T01:00:53;99483.44;;;5.47;60.27
77685;BME280;66844;46.092;18.268;2023-03-19T01:01:26;99484.41;;;5.44;60.04
77685;BME280;66844;46.092;18.268;2023-03-19T01:01:58;99480.00;;;5.45;60.57
77685;BME280;66844;46.092;18.268;2023-03-19T01:02:30;99481.75;;;5.44;60.01
77685;BME280;66844;46.092;18.268;2023-03-19T01:03:03;99474.69;;;5.46;60.11
77685;BME280;66844;46.092;18.268;2023-03-19T01:03:36;99479.09;;;5.46;60.01
77685;BME280;66844;46.092;18.268;2023-03-19T01:04:07;99481.66;;;5.47;59.66
77685;BME280;66844;46.092;18.268;2023-03-19T01:04:40;99488.72;;;5.47;60.33
77685;BME280;66844;46.092;18.268;2023-03-19T01:05:11;99480.00;;;5.45;60.21
77685;BME280;66844;46.092;18.268;2023-03-19T01:05:46;99476.38;;;5.47;60.13
77685;BME280;66844;46.092;18.268;2023-03-19T01:06:18;99486.09;;;5.47;60.44
77685;BME280;66844;46.092;18.268;2023-03-19T01:06:50;99478.19;;;5.47;60.38
77685;BME280;66844;46.092;18.268;2023-03-19T01:07:22;99478.09;;;5.48;59.44
77685;BME280;66844;46.092;18.268;2023-03-19T01:07:54;99477.19;;;5.49;59.69
77685;BME280;66844;46.092;18.268;2023-03-19T01:08:26;99475.41;;;5.50;59.70
77685;BME280;66844;46.092;18.268;2023-03-19T01:08:58;99482.41;;;5.51;59.21
77685;BME280;66844;46.092;18.268;2023-03-19T01:09:30;99481.47;;;5.52;59.72
77685;BME280;66844;46.092;18.268;2023-03-19T01:10:02;99477.06;;;5.52;59.59
77685;BME280;66844;46.092;18.268;2023-03-19T01:10:34;99474.38;;;5.54;59.29
77685;BME280;66844;46.092;18.268;2023-03-19T01:11:08;99478.69;;;5.56;59.42
77685;BME280;66844;46.092;18.268;2023-03-19T01:11:40;99476.94;;;5.55;59.10
77685;BME280;66844;46.092;18.268;2023-03-19T01:12:12;99474.31;;;5.55;59.12
77685;BME280;66844;46.092;18.268;2023-03-19T01:12:44;99483.16;;;5.54;58.93
77685;BME280;66844;46.092;18.268;2023-03-19T01:13:16;99481.38;;;5.55;59.50
77685;BME280;66844;46.092;18.268;2023-03-19T01:13:48;99476.91;;;5.57;58.73
77685;BME280;66844;46.092;18.268;2023-03-19T01:14:20;99478.69;;;5.56;58.72
77685;BME280;66844;46.092;18.268;2023-03-19T01:14:52;99476.00;;;5.58;59.59
77685;BME280;66844;46.092;18.268;2023-03-19T01:15:24;99476.88;;;5.58;59.13
77685;BME280;66844;46.092;18.268;2023-03-19T01:15:56;99485.59;;;5.59;59.07
77685;BME280;66844;46.092;18.268;2023-03-19T01:16:28;99480.34;;;5.59;58.81
77685;BME280;66844;46.092;18.268;2023-03-19T01:17:00;99481.19;;;5.59;59.27
77685;BME280;66844;46.092;18.268;2023-03-19T01:17:32;99487.34;;;5.60;58.57
77685;BME280;66844;46.092;18.268;2023-03-19T01:18:04;99479.50;;;5.58;58.86
77685;BME280;66844;46.092;18.268;2023-03-19T01:18:36;99479.38;;;5.61;58.71
77685;BME280;66844;46.092;18.268;2023-03-19T01:19:08;99480.28;;;5.60;58.63
77685;BME280;66844;46.092;18.268;2023-03-19T01:19:40;99475.88;;;5.61;58.73
77685;BME280;66844;46.092;18.268;2023-03-19T01:20:12;99479.25;;;5.64;58.55
77685;BME280;66844;46.092;18.268;2023-03-19T01:20:45;99475.88;;;5.61;58.18
77685;BME280;66844;46.092;18.268;2023-03-19T01:21:17;99481.06;;;5.62;58.92
77685;BME280;66844;46.092;18.268;2023-03-19T01:21:49;99473.22;;;5.61;58.76
77685;BME280;66844;46.092;18.268;2023-03-19T01:22:21;99472.25;;;5.63;58.55
77685;BME280;66844;46.092;18.268;2023-03-19T01:22:53;99476.63;;;5.64;58.43
77685;BME280;66844;46.092;18.268;2023-03-19T01:23:25;99478.34;;;5.65;58.33
77685;BME280;66844;46.092;18.268;2023-03-19T01:23:57;99475.75;;;5.64;58.61
77685;BME280;66844;46.092;18.268;2023-03-19T01:24:30;99473.06;;;5.65;58.51
77685;BME280;66844;46.092;18.268;2023-03-19T01:25:04;99477.53;;;5.63;58.62
77685;BME280;66844;46.092;18.268;2023-03-19T01:25:37;99475.00;;;5.60;59.04
77685;BME280;66844;46.092;18.268;2023-03-19T01:26:09;99480.16;;;5.63;58.23
77685;BME280;66844;46.092;18.268;2023-03-19T01:26:42;99475.78;;;5.62;58.93
77685;BME280;66844;46.092;18.268;2023-03-19T01:27:14;99470.59;;;5.61;58.58
77685;BME280;66844;46.092;18.268;2023-03-19T01:27:46;99474.09;;;5.61;58.41
77685;BME280;66844;46.092;18.268;2023-03-19T01:28:18;99471.50;;;5.60;58.40
77685;BME280;66844;46.092;18.268;2023-03-19T01:28:50;99474.09;;;5.61;58.52
77685;BME280;66844;46.092;18.268;2023-03-19T01:29:22;99475.00;;;5.60;58.49
77685;BME280;66844;46.092;18.268;2023-03-19T01:29:53;99472.38;;;5.60;58.68
77685;BME280;66844;46.092;18.268;2023-03-19T01:30:25;99474.22;;;5.58;58.88
77685;BME280;66844;46.092;18.268;2023-03-19T01:31:01;99469.91;;;5.56;58.76
77685;BME280;66844;46.092;18.268;2023-03-19T01:31:34;99469.03;;;5.55;58.73
77685;BME280;66844;46.092;18.268;2023-03-19T01:32:06;99472.53;;;5.56;58.90
77685;BME280;66844;46.092;18.268;2023-03-19T01:32:38;99467.38;;;5.53;58.95
77685;BME280;66844;46.092;18.268;2023-03-19T01:33:10;99476.09;;;5.55;59.29
77685;BME280;66844;46.092;18.268;2023-03-19T01:33:42;99467.25;;;5.56;58.67
77685;BME280;66844;46.092;18.268;2023-03-19T01:34:14;99467.38;;;5.53;59.02
77685;BME280;66844;46.092;18.268;2023-03-19T01:34:46;99466.47;;;5.54;59.00
77685;BME280;66844;46.092;18.268;2023-03-19T01:35:18;99465.66;;;5.52;59.14
77685;BME280;66844;46.092;18.268;2023-03-19T01:35:50;99457.69;;;5.53;59.23
77685;BME280;66844;46.092;18.268;2023-03-19T01:36:22;99470.94;;;5.52;58.78
77685;BME280;66844;46.092;18.268;2023-03-19T01:36:54;99471.91;;;5.49;59.52
77685;BME280;66844;46.092;18.268;2023-03-19T01:37:26;99469.41;;;5.46;59.10
77685;BME280;66844;46.092;18.268;2023-03-19T01:37:58;99463.13;;;5.49;59.03
77685;BME280;66844;46.092;18.268;2023-03-19T01:38:30;99460.63;;;5.46;58.98
77685;BME280;66844;46.092;18.268;2023-03-19T01:39:03;99465.91;;;5.46;59.18
77685;BME280;66844;46.092;18.268;2023-03-19T01:39:35;99465.03;;;5.45;59.26
77685;BME280;66844;46.092;18.268;2023-03-19T01:40:11;99461.59;;;5.43;59.33
77685;BME280;66844;46.092;18.268;2023-03-19T01:40:47;99466.00;;;5.43;59.25
77685;BME280;66844;46.092;18.268;2023-03-19T01:41:19;99464.28;;;5.42;59.22
77685;BME280;66844;46.092;18.268;2023-03-19T01:41:51;99461.69;;;5.40;59.02
77685;BME280;66844;46.092;18.268;2023-03-19T01:42:23;99462.50;;;5.42;59.68
77685;BME280;66844;46.092;18.268;2023-03-19T01:43:10;99455.59;;;5.40;59.36
77685;BME280;66844;46.092;18.268;2023-03-19T01:43:45;99464.31;;;5.40;59.13
77685;BME280;66844;46.092;18.268;2023-03-19T01:44:55;99459.16;;;5.37;59.59
77685;BME280;66844;46.092;18.268;2023-03-19T01:45:33;99462.69;;;5.37;59.29
77685;BME280;66844;46.092;18.268;2023-03-19T01:46:15;99457.53;;;5.34;59.39
77685;BME280;66844;46.092;18.268;2023-03-19T01:46:54;99458.44;;;5.33;59.68
77685;BME280;66844;46.092;18.268;2023-03-19T01:47:35;99454.13;;;5.31;59.51
77685;BME280;66844;46.092;18.268;2023-03-19T01:48:19;99455.00;;;5.31;59.76
77685;BME280;66844;46.092;18.268;2023-03-19T01:49:00;99456.03;;;5.27;59.79
77685;BME280;66844;46.092;18.268;2023-03-19T01:49:33;99459.56;;;5.26;59.70
77685;BME280;66844;46.092;18.268;2023-03-19T01:50:48;99452.66;;;5.24;59.92
77685;BME280;66844;46.092;18.268;2023-03-19T01:51:16;99451.69;;;5.25;60.12
77685;BME280;66844;46.092;18.268;2023-03-19T01:51:48;99463.31;;;5.21;60.08
77685;BME280;66844;46.092;18.268;2023-03-19T01:52:23;99457.22;;;5.19;60.19
77685;BME280;66844;46.092;18.268;2023-03-19T01:52:55;99455.47;;;5.18;60.18
77685;BME280;66844;46.092;18.268;2023-03-19T01:53:31;99463.41;;;5.18;60.13
77685;BME280;66844;46.092;18.268;2023-03-19T01:54:08;99459.00;;;5.18;60.06
77685;BME280;66844;46.092;18.268;2023-03-19T01:54:42;99452.06;;;5.16;59.75
77685;BME280;66844;46.092;18.268;2023-03-19T01:55:15;99453.88;;;5.14;60.23
77685;BME280;66844;46.092;18.268;2023-03-19T01:55:47;99463.63;;;5.12;60.71
77685;BME280;66844;46.092;18.268;2023-03-19T01:56:23;99454.00;;;5.11;60.64
77685;BME280;66844;46.092;18.268;2023-03-19T01:57:02;99458.31;;;5.13;60.44
77685;BME280;66844;46.092;18.268;2023-03-19T01:57:36;99454.81;;;5.13;60.66
77685;BME280;66844;46.092;18.268;2023-03-19T01:58:08;99457.44;;;5.13;60.29
77685;BME280;66844;46.092;18.268;2023-03-19T01:58:43;99461.00;;;5.12;60.44
77685;BME280;66844;46.092;18.268;2023-03-19T01:59:26;99454.97;;;5.08;60.25
77685;BME280;66844;46.092;18.268;2023-03-19T02:00:00;99453.25;;;5.07;60.93
77685;BME280;66844;46.092;18.268;2023-03-19T02:00:34;99462.88;;;5.08;60.58
77685;BME280;66844;46.092;18.268;2023-03-19T02:01:08;99460.28;;;5.07;60.91
77685;BME280;66844;46.092;18.268;2023-03-19T02:01:55;99450.75;;;5.03;60.61
77685;BME280;66844;46.092;18.268;2023-03-19T02:02:30;99460.41;;;5.04;61.18
77685;BME280;66844;46.092;18.268;2023-03-19T02:03:04;99458.63;;;5.04;61.18
77685;BME280;66844;46.092;18.268;2023-03-19T02:03:37;99464.78;;;5.05;60.81
77685;BME280;66844;46.092;18.268;2023-03-19T02:04:09;99458.63;;;5.04;60.90
77685;BME280;66844;46.092;18.268;2023-03-19T02:04:43;99456.03;;;5.03;60.62
77685;BME280;66844;46.092;18.268;2023-03-19T02:05:18;99458.59;;;5.06;60.67
77685;BME280;66844;46.092;18.268;2023-03-19T02:05:56;99458.63;;;5.04;60.99
77685;BME280;66844;46.092;18.268;2023-03-19T02:06:31;99456.03;;;5.03;60.44
77685;BME280;66844;46.092;18.268;2023-03-19T02:07:05;99456.91;;;5.03;60.85
77685;BME280;66844;46.092;18.268;2023-03-19T02:07:40;99451.75;;;5.00;60.82
77685;BME280;66844;46.092;18.268;2023-03-19T02:08:15;99449.09;;;5.00;60.93
77685;BME280;66844;46.092;18.268;2023-03-19T02:08:48;99446.47;;;5.00;60.86
77685;BME280;66844;46.092;18.268;2023-03-19T02:09:23;99456.16;;;5.00;60.91
77685;BME280;66844;46.092;18.268;2023-03-19T02:09:56;99445.88;;;4.92;61.32
77685;BME280;66844;46.092;18.268;2023-03-19T02:10:29;99450.28;;;4.92;61.59
77685;BME280;66844;46.092;18.268;2023-03-19T02:11:03;99445.94;;;4.91;61.18
77685;BME280;66844;46.092;18.268;2023-03-19T02:11:37;99442.44;;;4.90;61.11
77685;BME280;66844;46.092;18.268;2023-03-19T02:12:09;99444.22;;;4.89;61.35
77685;BME280;66844;46.092;18.268;2023-03-19T02:12:41;99440.78;;;4.87;61.06
77685;BME280;66844;46.092;18.268;2023-03-19T02:13:14;99445.19;;;4.87;61.76
77685;BME280;66844;46.092;18.268;2023-03-19T02:13:46;99451.34;;;4.87;61.66
77685;BME280;66844;46.092;18.268;2023-03-19T02:14:18;99443.59;;;4.83;61.37
77685;BME280;66844;46.092;18.268;2023-03-19T02:14:50;99446.22;;;4.83;61.58
77685;BME280;66844;46.092;18.268;2023-03-19T02:15:22;99444.50;;;4.82;61.75
77685;BME280;66844;46.092;18.268;2023-03-19T02:15:54;99444.59;;;4.79;61.67
77685;BME280;66844;46.092;18.268;2023-03-19T02:16:26;99443.75;;;4.78;61.81
77685;BME280;66844;46.092;18.268;2023-03-19T02:16:58;99442.84;;;4.79;61.60
77685;BME280;66844;46.092;18.268;2023-03-19T02:17:31;99441.09;;;4.78;61.62
77685;BME280;66844;46.092;18.268;2023-03-19T02:18:04;99436.75;;;4.77;61.47
77685;BME280;66844;46.092;18.268;2023-03-19T02:18:36;99449.91;;;4.77;61.69
77685;BME280;66844;46.092;18.268;2023-03-19T02:19:15;99447.28;;;4.77;61.63
77685;BME280;66844;46.092;18.268;2023-03-19T02:20:06;99437.59;;;4.78;61.58
77685;BME280;66844;46.092;18.268;2023-03-19T02:21:16;99438.63;;;4.74;61.58
77685;BME280;66844;46.092;18.268;2023-03-19T02:21:49;99442.91;;;4.76;61.63
77685;BME280;66844;46.092;18.268;2023-03-19T02:22:23;99438.59;;;4.75;61.78
77685;BME280;66844;46.092;18.268;2023-03-19T02:23:10;99437.59;;;4.78;61.57
77685;BME280;66844;46.092;18.268;2023-03-19T02:24:01;99438.47;;;4.78;61.24
77685;BME280;66844;46.092;18.268;2023-03-19T02:25:40;99440.25;;;4.78;61.43
77685;BME280;66844;46.092;18.268;2023-03-19T02:26:19;99435.84;;;4.78;61.48
77685;BME280;66844;46.092;18.268;2023-03-19T02:26:52;99439.38;;;4.77;61.40
77685;BME280;66844;46.092;18.268;2023-03-19T02:27:25;99438.47;;;4.78;61.64
77685;BME280;66844;46.092;18.268;2023-03-19T02:27:57;99442.84;;;4.79;61.53
77685;BME280;66844;46.092;18.268;2023-03-19T02:28:31;99437.66;;;4.76;61.36
77685;BME280;66844;46.092;18.268;2023-03-19T02:29:03;99442.09;;;4.76;61.97
77685;BME280;66844;46.092;18.268;2023-03-19T02:29:36;99434.19;;;4.76;61.61
77685;BME280;66844;46.092;18.268;2023-03-19T02:30:20;99440.41;;;4.73;61.84
77685;BME280;66844;46.092;18.268;2023-03-19T02:30:52;99435.09;;;4.75;61.84
77685;BME280;66844;46.092;18.268;2023-03-19T02:31:24;99433.31;;;4.75;61.29
77685;BME280;66844;46.092;18.268;2023-03-19T02:31:56;99439.38;;;4.77;61.35
77685;BME280;66844;46.092;18.268;2023-03-19T02:32:28;99441.16;;;4.77;61.08
77685;BME280;66844;46.092;18.268;2023-03-19T02:33:00;99433.31;;;4.75;61.77
77685;BME280;66844;46.092;18.268;2023-03-19T02:33:32;99435.84;;;4.78;61.23
77685;BME280;66844;46.092;18.268;2023-03-19T02:34:44;99439.22;;;4.82;61.43
77685;BME280;66844;46.092;18.268;2023-03-19T02:35:17;99431.34;;;4.80;61.04
77685;BME280;66844;46.092;18.268;2023-03-19T02:35:50;99429.69;;;4.78;61.34
77685;BME280;66844;46.092;18.268;2023-03-19T02:36:23;99432.34;;;4.78;61.45
77685;BME280;66844;46.092;18.268;2023-03-19T02:37:19;99437.56;;;4.79;61.14
77685;BME280;66844;46.092;18.268;2023-03-19T02:37:51;99443.75;;;4.78;61.50
77685;BME280;66844;46.092;18.268;2023-03-19T02:38:26;99436.81;;;4.76;61.40
77685;BME280;66844;46.092;18.268;2023-03-19T02:39:02;99441.09;;;4.78;60.98
77685;BME280;66844;46.092;18.268;2023-03-19T02:40:00;99442.84;;;4.79;61.11
77685;BME280;66844;46.092;18.268;2023-03-19T02:40:40;99442.00;;;4.77;60.80
77685;BME280;66844;46.092;18.268;2023-03-19T02:41:14;99440.25;;;4.78;61.06
77685;BME280;66844;46.092;18.268;2023-03-19T02:41:47;99432.44;;;4.75;60.92
77685;BME280;66844;46.092;18.268;2023-03-19T02:42:21;99441.09;;;4.78;60.87
77685;BME280;66844;46.092;18.268;2023-03-19T02:42:54;99445.47;;;4.79;60.83
77685;BME280;66844;46.092;18.268;2023-03-19T02:43:27;99442.88;;;4.78;61.09
77685;BME280;66844;46.092;18.268;2023-03-19T02:44:02;99442.88;;;4.78;61.15
77685;BME280;66844;46.092;18.268;2023-03-19T02:44:35;99438.59;;;4.75;60.79
77685;BME280;66844;46.092;18.268;2023-03-19T02:45:08;99442.88;;;4.78;61.55
77685;BME280;66844;46.092;18.268;2023-03-19T02:45:40;99438.50;;;4.77;61.18
77685;BME280;66844;46.092;18.268;2023-03-19T02:46:12;99444.75;;;4.74;61.35
77685;BME280;66844;46.092;18.268;2023-03-19T02:46:44;99444.78;;;4.73;61.15
77685;BME280;66844;46.092;18.268;2023-03-19T02:47:16;99446.59;;;4.72;61.22
77685;BME280;66844;46.092;18.268;2023-03-19T02:47:48;99440.41;;;4.73;61.35
77685;BME280;66844;46.092;18.268;2023-03-19T02:48:20;99449.16;;;4.74;60.75
77685;BME280;66844;46.092;18.268;2023-03-19T02:48:52;99450.81;;;4.76;61.03
77685;BME280;66844;46.092;18.268;2023-03-19T02:49:24;99441.16;;;4.77;60.95
77685;BME280;66844;46.092;18.268;2023-03-19T02:49:55;99449.88;;;4.79;60.70
77685;BME280;66844;46.092;18.268;2023-03-19T02:50:27;99448.16;;;4.78;61.18
77685;BME280;66844;46.092;18.268;2023-03-19T02:50:59;99454.31;;;4.77;60.77
77685;BME280;66844;46.092;18.268;2023-03-19T02:51:31;99451.69;;;4.77;60.75
77685;BME280;66844;46.092;18.268;2023-03-19T02:52:03;99453.47;;;4.76;60.97
77685;BME280;66844;46.092;18.268;2023-03-19T02:52:35;99451.66;;;4.78;60.57
77685;BME280;66844;46.092;18.268;2023-03-19T02:53:07;99454.28;;;4.78;60.75
77685;BME280;66844;46.092;18.268;2023-03-19T02:53:39;99454.31;;;4.77;60.70
77685;BME280;66844;46.092;18.268;2023-03-19T02:54:11;99457.81;;;4.77;60.87
77685;BME280;66844;46.092;18.268;2023-03-19T02:54:43;99460.34;;;4.80;60.81
77685;BME280;66844;46.092;18.268;2023-03-19T02:55:15;99452.50;;;4.79;60.40
77685;BME280;66844;46.092;18.268;2023-03-19T02:55:49;99460.34;;;4.80;60.53
77685;BME280;66844;46.092;18.268;2023-03-19T02:56:22;99455.94;;;4.81;60.53
77685;BME280;66844;46.092;18.268;2023-03-19T02:56:53;99454.28;;;4.78;60.55
77685;BME280;66844;46.092;18.268;2023-03-19T02:57:25;99455.16;;;4.79;60.63
77685;BME280;66844;46.092;18.268;2023-03-19T02:57:57;99452.56;;;4.77;60.46
77685;BME280;66844;46.092;18.268;2023-03-19T02:58:30;99451.81;;;4.74;60.82
77685;BME280;66844;46.092;18.268;2023-03-19T02:59:02;99457.03;;;4.75;60.87
77685;BME280;66844;46.092;18.268;2023-03-19T02:59:34;99456.09;;;4.76;60.48